Time;durP1;ratioP1;P1;durP2;ratioP2;P2;SDS_P1;SDS_P2;PMS_P1;PMS_P2;Temp;Humidity;BMP_temperature;BMP_pressure;BME280_temperature;BME280_humidity;BME280_pressure;Samples;Min_cycle;Max_cycle;Signal;HPM_P1;HPM_P2
2022/11/06 00:00:55;;;;;;;6.13;2.83;;;7.30;99.90;;;;;;4972009;28;20251;-88
2022/11/06 00:03:21;;;;;;;6.23;3.00;;;7.40;99.90;;;;;;4971503;28;20183;-88
2022/11/06 00:08:39;;;;;;;5.80;2.67;;;7.40;99.90;;;;;;4972957;28;20184;-89
2022/11/06 00:11:14;;;;;;;6.70;2.43;;;7.40;99.90;;;;;;4972997;28;20285;-88
2022/11/06 00:13:41;;;;;;;3.40;2.53;;;7.40;99.90;;;;;;4971878;28;20191;-87
2022/11/06 00:16:08;;;;;;;5.07;2.73;;;7.30;99.90;;;;;;4972467;28;20173;-88
2022/11/06 00:18:35;;;;;;;5.63;3.07;;;7.30;99.90;;;;;;4975872;28;20191;-88
2022/11/06 00:21:13;;;;;;;5.53;3.17;;;7.30;99.90;;;;;;4975942;28;20200;-87
2022/11/06 00:23:39;;;;;;;6.60;3.27;;;7.30;99.90;;;;;;4991474;28;20176;-88
2022/11/06 00:26:07;;;;;;;7.80;3.07;;;7.20;99.90;;;;;;4991090;28;20232;-88
2022/11/06 00:28:33;;;;;;;5.60;2.47;;;7.20;99.90;;;;;;4974953;28;20190;-88
2022/11/06 00:31:04;;;;;;;4.50;2.60;;;7.10;99.90;;;;;;4956647;28;20162;-88
2022/11/06 00:33:31;;;;;;;12.27;2.93;;;7.10;99.90;;;;;;4971432;28;20181;-88
2022/11/06 00:35:56;;;;;;;6.30;2.57;;;7.10;99.90;;;;;;4956823;28;20857;-88
2022/11/06 00:38:22;;;;;;;7.53;2.83;;;7.10;99.90;;;;;;4971319;28;20297;-88
2022/11/06 00:40:48;;;;;;;3.97;2.53;;;7.00;99.90;;;;;;4971306;28;20220;-88
2022/11/06 00:43:16;;;;;;;5.77;2.87;;;6.90;99.90;;;;;;4956625;28;20277;-87
2022/11/06 00:45:42;;;;;;;4.03;2.40;;;6.90;99.90;;;;;;4971153;28;20197;-88
2022/11/06 00:48:07;;;;;;;6.87;3.07;;;6.90;99.90;;;;;;4996498;28;20663;-89
2022/11/06 00:50:33;;;;;;;5.50;2.60;;;6.90;99.90;;;;;;4995040;28;20177;-88
2022/11/06 00:52:59;;;;;;;7.60;2.63;;;6.90;99.90;;;;;;4993798;28;20204;-89
2022/11/06 00:55:25;;;;;;;8.67;3.07;;;6.80;99.90;;;;;;4993518;28;20184;-87
2022/11/06 00:57:51;;;;;;;5.13;2.83;;;6.80;99.90;;;;;;4993752;28;20207;-88
2022/11/06 01:00:19;;;;;;;8.10;2.80;;;6.80;99.90;;;;;;4993725;28;20231;-89
2022/11/06 01:02:45;;;;;;;6.73;2.67;;;6.80;99.90;;;;;;4994740;28;20167;-88
2022/11/06 01:05:12;;;;;;;4.77;2.63;;;6.70;99.90;;;;;;4993697;28;20535;-88
2022/11/06 01:07:39;;;;;;;5.20;2.97;;;6.70;99.90;;;;;;4994861;28;20203;-88
2022/11/06 01:10:06;;;;;;;6.30;3.20;;;6.70;99.90;;;;;;4993690;28;20176;-88
2022/11/06 01:12:33;;;;;;;5.23;2.93;;;6.70;99.90;;;;;;4993605;28;20195;-88
2022/11/06 01:14:59;;;;;;;5.83;2.90;;;6.70;99.90;;;;;;4993527;28;20199;-88
2022/11/06 01:17:25;;;;;;;8.80;3.47;;;6.70;99.90;;;;;;4986411;28;20259;-88
2022/11/06 01:19:51;;;;;;;6.00;3.20;;;6.80;99.90;;;;;;4975495;28;20165;-89
2022/11/06 01:22:18;;;;;;;4.83;2.40;;;6.80;99.90;;;;;;4974209;28;20227;-88
2022/11/06 01:24:43;;;;;;;4.53;2.67;;;6.80;99.90;;;;;;4973826;28;20199;-89
2022/11/06 01:27:10;;;;;;;4.40;2.50;;;6.80;99.90;;;;;;4990179;28;20204;-88
2022/11/06 01:29:36;;;;;;;6.07;2.43;;;6.80;99.90;;;;;;4989810;28;20268;-88
2022/11/06 01:32:02;;;;;;;6.03;2.70;;;6.80;99.90;;;;;;4990392;28;20287;-88
2022/11/06 01:34:28;;;;;;;7.00;2.87;;;6.90;99.90;;;;;;4990217;28;20242;-87
2022/11/06 01:36:53;;;;;;;5.60;3.10;;;6.90;99.90;;;;;;4989694;28;20703;-88
2022/11/06 01:39:19;;;;;;;4.07;2.83;;;6.90;99.90;;;;;;4989919;28;20284;-87
2022/11/06 01:41:50;;;;;;;4.97;2.53;;;6.90;99.90;;;;;;4990162;28;20200;-90
2022/11/06 01:44:34;;;;;;;5.87;2.70;;;7.00;99.90;;;;;;4989731;28;20177;-88
2022/11/06 01:47:16;;;;;;;5.70;2.67;;;7.00;99.90;;;;;;4978147;28;20214;-88
2022/11/06 01:49:43;;;;;;;4.53;2.90;;;7.10;99.90;;;;;;4993983;28;20598;-88
2022/11/06 01:52:11;;;;;;;4.97;2.77;;;7.10;99.90;;;;;;4992795;28;20195;-88
2022/11/06 01:54:41;;;;;;;4.60;2.50;;;7.10;99.90;;;;;;4992504;28;20184;-87
2022/11/06 01:57:09;;;;;;;7.23;3.00;;;7.10;99.90;;;;;;4992607;28;20211;-87
2022/11/06 01:59:38;;;;;;;4.67;2.80;;;7.20;99.90;;;;;;4993668;28;20176;-88
2022/11/06 02:02:05;;;;;;;8.63;2.90;;;7.20;99.90;;;;;;4992639;28;20224;-88
2022/11/06 02:04:41;;;;;;;5.63;2.70;;;7.20;99.90;;;;;;4993829;28;20299;-88
2022/11/06 02:07:08;;;;;;;4.07;2.33;;;7.20;99.90;;;;;;4992395;28;20619;-87
2022/11/06 02:09:34;;;;;;;7.80;2.63;;;7.20;99.90;;;;;;4992498;28;20583;-88
2022/11/06 02:12:15;;;;;;;6.23;2.87;;;7.10;99.90;;;;;;4992506;28;20184;-88
2022/11/06 02:15:09;;;;;;;4.57;2.70;;;7.20;99.90;;;;;;4992391;28;20274;-88
2022/11/06 02:18:06;;;;;;;5.37;2.70;;;7.20;99.90;;;;;;4992263;28;20207;-88
2022/11/06 02:21:14;;;;;;;5.40;2.57;;;7.20;99.90;;;;;;4992290;28;20253;-89
2022/11/06 02:24:13;;;;;;;5.30;2.63;;;7.20;99.90;;;;;;4953093;28;20555;-88
2022/11/06 02:27:04;;;;;;;4.87;2.43;;;7.20;99.90;;;;;;4953510;28;20204;-87
2022/11/06 02:29:53;;;;;;;6.23;2.33;;;7.20;99.90;;;;;;4953316;29;20182;-89
2022/11/06 02:32:28;;;;;;;5.07;2.40;;;7.20;99.90;;;;;;4946778;29;20207;-88
2022/11/06 02:34:56;;;;;;;2.83;2.23;;;7.20;99.90;;;;;;5342800;23;20381;-89
2022/11/06 02:37:34;;;;;;;3.83;2.30;;;7.20;99.90;;;;;;4969807;28;20201;-87
2022/11/06 02:40:05;;;;;;;5.73;2.40;;;7.20;99.90;;;;;;4972125;28;20188;-88
2022/11/06 02:42:36;;;;;;;5.23;2.77;;;7.30;99.90;;;;;;4973915;28;20200;-88
2022/11/06 02:45:02;;;;;;;7.70;2.40;;;7.30;99.90;;;;;;4972363;28;20184;-88
2022/11/06 02:47:31;;;;;;;6.50;2.70;;;7.30;99.90;;;;;;4973395;28;20196;-88
2022/11/06 02:50:10;;;;;;;11.37;2.40;;;7.40;99.90;;;;;;4973605;28;20195;-89
2022/11/06 02:52:42;;;;;;;4.87;2.40;;;7.40;99.90;;;;;;4988724;28;20291;-88
2022/11/06 02:55:14;;;;;;;5.17;2.40;;;7.40;99.90;;;;;;4972351;28;20544;-88
2022/11/06 02:57:46;;;;;;;4.43;2.30;;;7.40;99.90;;;;;;4988826;28;20236;-89
2022/11/06 03:00:14;;;;;;;8.23;2.43;;;7.40;99.90;;;;;;4972249;28;20648;-88
2022/11/06 03:02:55;;;;;;;9.40;2.60;;;7.40;99.90;;;;;;4972312;28;20184;-88
2022/11/06 03:05:25;;;;;;;3.67;2.17;;;7.40;99.90;;;;;;4971921;28;20639;-87
2022/11/06 03:08:23;;;;;;;6.90;2.60;;;7.40;99.90;;;;;;4971963;28;20660;-88
2022/11/06 03:11:19;;;;;;;7.83;3.07;;;7.40;99.90;;;;;;4972182;28;20204;-87
2022/11/06 03:14:02;;;;;;;6.40;2.90;;;7.40;99.90;;;;;;4972124;28;20220;-88
2022/11/06 03:16:31;;;;;;;6.77;3.20;;;7.40;99.90;;;;;;4973815;28;20227;-88
2022/11/06 03:19:12;;;;;;;8.37;3.20;;;7.40;99.90;;;;;;4972050;28;20189;-87
2022/11/06 03:22:01;;;;;;;4.93;3.30;;;7.40;99.90;;;;;;4972017;28;20570;-87
2022/11/06 03:24:33;;;;;;;7.83;3.57;;;7.40;99.90;;;;;;4972179;28;20220;-88
2022/11/06 03:27:07;;;;;;;6.90;3.20;;;7.50;99.90;;;;;;4972062;28;20193;-88
2022/11/06 03:30:14;;;;;;;7.40;3.27;;;7.60;99.90;;;;;;4971963;28;20315;-90
2022/11/06 03:32:57;;;;;;;5.87;3.10;;;7.70;99.90;;;;;;4968120;28;20208;-88
2022/11/06 03:35:42;;;;;;;8.73;3.30;;;7.70;99.90;;;;;;4977467;28;20227;-88
2022/11/06 03:38:37;;;;;;;6.57;3.00;;;7.70;99.90;;;;;;4991028;28;20628;-88
2022/11/06 03:41:26;;;;;;;6.90;3.03;;;7.80;99.90;;;;;;4985327;28;20714;-87
2022/11/06 03:43:57;;;;;;;4.60;3.00;;;7.80;99.90;;;;;;4992030;28;20266;-88
2022/11/06 03:46:25;;;;;;;4.43;2.80;;;7.80;99.90;;;;;;4991091;28;20164;-88
2022/11/06 03:48:59;;;;;;;3.30;2.47;;;7.80;99.90;;;;;;4986682;28;20712;-87
2022/11/06 03:51:42;;;;;;;4.80;3.10;;;7.90;99.90;;;;;;4972520;28;20223;-88
2022/11/06 03:54:20;;;;;;;5.67;2.80;;;7.90;99.90;;;;;;4975786;28;20648;-88
2022/11/06 03:56:50;;;;;;;4.83;3.00;;;7.90;99.90;;;;;;4976500;28;20196;-88
2022/11/06 03:59:22;;;;;;;4.73;3.17;;;8.00;99.90;;;;;;4975441;28;20173;-88
2022/11/06 04:01:52;;;;;;;4.13;2.73;;;8.00;99.90;;;;;;4975521;28;20541;-88
2022/11/06 04:04:24;;;;;;;7.47;3.20;;;8.00;99.90;;;;;;4975175;28;20539;-88
2022/11/06 04:07:03;;;;;;;6.43;3.10;;;7.90;99.90;;;;;;4975185;28;20204;-88
2022/11/06 04:15:12;;;;;;;7.57;3.53;;;8.00;99.90;;;;;;4976796;28;20319;-88
2022/11/06 04:17:39;;;;;;;7.97;3.13;;;8.00;99.90;;;;;;4975337;28;20228;-88
2022/11/06 04:23:26;;;;;;;5.53;3.20;;;8.10;99.90;;;;;;4976853;28;20248;-87
2022/11/06 04:26:36;;;;;;;10.07;3.47;;;8.10;99.90;;;;;;4976185;28;20171;-88
2022/11/06 04:29:48;;;;;;;7.17;3.00;;;8.10;99.90;;;;;;4975083;28;20172;-88
2022/11/06 04:32:25;;;;;;;7.10;3.23;;;8.00;99.90;;;;;;4968266;28;20181;-87
2022/11/06 04:34:56;;;;;;;9.10;3.07;;;8.10;99.90;;;;;;4959217;28;20708;-88
2022/11/06 04:37:35;;;;;;;6.50;3.30;;;8.10;99.90;;;;;;4994528;28;20207;-88
2022/11/06 04:40:00;;;;;;;10.37;3.37;;;8.10;99.90;;;;;;4994734;28;20651;-88
2022/11/06 04:42:38;;;;;;;5.97;2.80;;;8.10;99.90;;;;;;4994276;28;20299;-87
2022/11/06 04:45:10;;;;;;;4.67;2.63;;;8.10;99.90;;;;;;4994640;28;20581;-87
2022/11/06 04:47:37;;;;;;;6.00;3.07;;;8.10;99.90;;;;;;4993978;28;20611;-88
2022/11/06 04:50:07;;;;;;;5.73;2.93;;;8.10;99.90;;;;;;4993878;28;20179;-87
2022/11/06 04:52:35;;;;;;;6.10;2.80;;;8.00;99.90;;;;;;4994025;28;20172;-86
2022/11/06 04:55:01;;;;;;;7.33;3.20;;;8.00;99.90;;;;;;4993893;28;20172;-87
2022/11/06 04:57:27;;;;;;;8.03;3.33;;;8.00;99.90;;;;;;4993664;28;20567;-88
2022/11/06 04:59:55;;;;;;;6.73;3.07;;;8.00;99.90;;;;;;4993765;28;20172;-87
2022/11/06 05:02:21;;;;;;;8.00;3.60;;;8.00;99.90;;;;;;4993248;28;20200;-87
2022/11/06 05:04:47;;;;;;;6.03;2.73;;;8.00;99.90;;;;;;4992852;28;20183;-87
2022/11/06 05:07:14;;;;;;;6.57;3.13;;;8.00;99.90;;;;;;4973506;28;20264;-87
2022/11/06 05:09:41;;;;;;;6.80;3.07;;;8.00;99.90;;;;;;4974654;28;20200;-88
2022/11/06 05:12:07;;;;;;;6.90;3.40;;;8.00;99.90;;;;;;4975887;28;20184;-88
2022/11/06 05:14:33;;;;;;;11.17;3.57;;;8.00;99.90;;;;;;4975633;28;20169;-90
2022/11/06 05:16:59;;;;;;;6.17;2.70;;;8.00;99.90;;;;;;4974776;28;20211;-88
2022/11/06 05:19:25;;;;;;;8.53;3.23;;;8.00;99.90;;;;;;4990386;28;20176;-87
2022/11/06 05:24:35;;;;;;;12.47;3.60;;;8.10;99.90;;;;;;4975211;28;20643;-88
2022/11/06 05:27:00;;;;;;;6.97;3.47;;;8.00;99.90;;;;;;4974384;28;20209;-88
2022/11/06 05:29:26;;;;;;;6.60;3.17;;;8.00;99.90;;;;;;4973945;28;20177;-88
2022/11/06 05:31:52;;;;;;;5.97;2.97;;;7.90;99.90;;;;;;4973918;28;20566;-88
2022/11/06 05:34:18;;;;;;;5.63;2.83;;;7.90;99.90;;;;;;4973950;28;20177;-89
2022/11/06 05:36:44;;;;;;;9.07;3.07;;;8.00;99.90;;;;;;4988494;28;20580;-87
2022/11/06 05:39:10;;;;;;;7.43;2.90;;;8.00;99.90;;;;;;4994555;28;20780;-88
2022/11/06 05:41:35;;;;;;;8.73;3.20;;;8.00;99.90;;;;;;4993370;28;20803;-87
2022/11/06 05:44:01;;;;;;;4.53;2.83;;;8.10;99.90;;;;;;4993020;28;20179;-86
2022/11/06 05:46:27;;;;;;;6.93;2.93;;;8.10;99.90;;;;;;4993089;28;20234;-88
2022/11/06 05:48:53;;;;;;;8.47;3.07;;;8.10;99.90;;;;;;4992970;28;20223;-88
2022/11/06 05:51:19;;;;;;;7.47;3.50;;;8.10;99.90;;;;;;4992669;28;20659;-87
2022/11/06 05:53:45;;;;;;;4.77;2.53;;;8.10;99.90;;;;;;4993504;28;20176;-87
2022/11/06 05:56:10;;;;;;;9.43;3.40;;;8.00;99.90;;;;;;4992390;28;20184;-87
2022/11/06 05:58:36;;;;;;;7.10;2.83;;;8.00;99.90;;;;;;4993280;28;20262;-88
2022/11/06 06:01:02;;;;;;;7.80;3.60;;;8.00;99.90;;;;;;4992924;28;20334;-87
2022/11/06 06:03:28;;;;;;;9.27;3.10;;;8.00;99.90;;;;;;4992714;28;20291;-88
2022/11/06 06:05:54;;;;;;;8.67;2.90;;;8.00;99.90;;;;;;4984471;28;20754;-89
2022/11/06 06:08:20;;;;;;;6.97;3.60;;;8.00;99.90;;;;;;4973404;28;20204;-88
2022/11/06 06:10:47;;;;;;;7.10;3.03;;;8.00;99.90;;;;;;4973490;28;20216;-87
2022/11/06 06:13:13;;;;;;;5.43;3.13;;;8.10;99.90;;;;;;4973523;28;20259;-88
2022/11/06 06:15:41;;;;;;;7.87;3.30;;;8.10;99.90;;;;;;4973170;28;20183;-88
2022/11/06 06:18:08;;;;;;;7.03;3.67;;;8.00;99.90;;;;;;4973251;28;20201;-88
2022/11/06 06:20:34;;;;;;;8.03;2.90;;;8.10;99.90;;;;;;4967727;28;20204;-88
2022/11/06 06:23:01;;;;;;;5.97;3.10;;;8.20;99.90;;;;;;4954978;28;20268;-88
2022/11/06 06:25:28;;;;;;;8.67;3.23;;;8.10;99.90;;;;;;4967919;28;20174;-89
2022/11/06 06:27:54;;;;;;;6.20;2.90;;;8.20;99.90;;;;;;4967396;28;20227;-87
2022/11/06 06:30:22;;;;;;;5.67;2.77;;;8.20;99.90;;;;;;4960872;28;20173;-89
2022/11/06 06:32:48;;;;;;;7.30;2.60;;;8.20;99.90;;;;;;4957795;28;20704;-88
2022/11/06 06:35:16;;;;;;;7.10;2.90;;;8.10;99.90;;;;;;4954860;28;20224;-88
2022/11/06 06:37:54;;;;;;;7.97;2.97;;;8.20;99.90;;;;;;4971267;28;20276;-88
2022/11/06 06:40:20;;;;;;;8.07;3.23;;;8.10;99.90;;;;;;4972822;28;20188;-88
2022/11/06 06:42:47;;;;;;;8.17;3.10;;;8.10;99.90;;;;;;4972924;28;20181;-88
2022/11/06 06:45:13;;;;;;;10.27;3.03;;;8.10;99.90;;;;;;4972649;28;20211;-87
2022/11/06 06:47:39;;;;;;;8.33;2.83;;;8.00;99.90;;;;;;4972367;28;20193;-88
2022/11/06 06:50:05;;;;;;;10.50;3.10;;;8.10;99.90;;;;;;4971361;28;20185;-88
2022/11/06 06:52:31;;;;;;;5.40;2.63;;;8.10;99.90;;;;;;4964165;28;20184;-87
2022/11/06 06:54:58;;;;;;;8.07;3.33;;;8.20;99.90;;;;;;4961009;28;20271;-88
2022/11/06 06:57:24;;;;;;;4.07;3.07;;;8.20;99.90;;;;;;4963431;28;20258;-87
2022/11/06 06:59:49;;;;;;;8.00;3.03;;;8.20;99.90;;;;;;4973608;28;20173;-87
2022/11/06 07:02:15;;;;;;;4.63;2.97;;;8.20;99.90;;;;;;4971922;28;20204;-88
2022/11/06 07:04:41;;;;;;;4.87;2.90;;;8.30;99.90;;;;;;4972107;28;20360;-88
2022/11/06 07:07:07;;;;;;;6.57;3.20;;;8.30;99.90;;;;;;4971343;28;20306;-88
2022/11/06 07:09:33;;;;;;;6.63;3.07;;;8.30;99.90;;;;;;4972214;28;20180;-88
2022/11/06 07:11:59;;;;;;;8.40;2.97;;;8.30;99.90;;;;;;4972648;28;20184;-90
2022/11/06 07:14:25;;;;;;;10.27;3.77;;;8.30;99.90;;;;;;4972662;28;20184;-88
2022/11/06 07:16:50;;;;;;;4.03;2.60;;;8.30;99.90;;;;;;4973359;28;20260;-88
2022/11/06 07:19:16;;;;;;;5.30;3.00;;;8.30;99.90;;;;;;4973552;28;20692;-90
2022/11/06 07:21:42;;;;;;;8.33;2.87;;;8.40;99.90;;;;;;4971967;28;20291;-88
2022/11/06 07:24:08;;;;;;;5.97;2.63;;;8.50;99.90;;;;;;4972201;28;20633;-88
2022/11/06 07:26:34;;;;;;;7.87;3.07;;;8.50;99.90;;;;;;4971822;28;20196;-89
2022/11/06 07:29:00;;;;;;;6.27;2.83;;;8.50;99.90;;;;;;4972564;28;20332;-87
2022/11/06 07:31:26;;;;;;;7.87;2.73;;;8.50;99.90;;;;;;4972622;28;20238;-88
2022/11/06 07:33:51;;;;;;;8.83;3.03;;;8.60;99.90;;;;;;4973974;28;20196;-89
2022/11/06 07:36:17;;;;;;;5.63;3.17;;;8.50;99.90;;;;;;4973620;28;20323;-90
2022/11/06 07:38:43;;;;;;;8.67;3.00;;;8.50;99.90;;;;;;4972638;28;20172;-88
2022/11/06 07:41:11;;;;;;;7.77;3.07;;;8.40;99.90;;;;;;4973766;28;20239;-89
2022/11/06 07:43:37;;;;;;;12.60;3.53;;;8.40;99.90;;;;;;4973417;28;20216;-90
2022/11/06 07:46:06;;;;;;;8.33;3.10;;;8.40;99.90;;;;;;4972303;28;20609;-89
2022/11/06 07:48:32;;;;;;;9.30;4.00;;;8.30;99.90;;;;;;4970646;28;20200;-89
2022/11/06 07:51:02;;;;;;;8.53;3.40;;;8.30;99.90;;;;;;4971795;28;20267;-88
2022/11/06 07:53:28;;;;;;;7.13;3.50;;;8.20;99.90;;;;;;4972389;28;20520;-89
2022/11/06 07:55:55;;;;;;;6.77;3.43;;;8.20;99.90;;;;;;4972485;28;20173;-88
2022/11/06 07:58:22;;;;;;;12.37;3.50;;;8.20;99.90;;;;;;4956579;28;20205;-90
2022/11/06 08:00:53;;;;;;;8.33;3.30;;;8.20;99.90;;;;;;4952634;28;20204;-88
2022/11/06 08:03:21;;;;;;;7.93;3.50;;;8.20;99.90;;;;;;4953079;29;20205;-88
2022/11/06 08:05:47;;;;;;;10.40;3.77;;;8.20;99.90;;;;;;4952557;28;20182;-89
2022/11/06 08:08:14;;;;;;;11.40;3.70;;;8.20;99.90;;;;;;4953984;28;20685;-89
2022/11/06 08:10:42;;;;;;;6.33;3.30;;;8.20;99.90;;;;;;4953024;29;20180;-88
2022/11/06 08:13:13;;;;;;;6.90;3.27;;;8.20;99.90;;;;;;4953000;28;20228;-88
2022/11/06 08:15:40;;;;;;;12.37;3.67;;;8.20;99.90;;;;;;4952825;29;20170;-89
2022/11/06 08:18:07;;;;;;;14.07;4.40;;;8.20;99.90;;;;;;4952738;29;20205;-88
2022/11/06 08:20:34;;;;;;;8.03;3.43;;;8.20;99.90;;;;;;4965510;28;20197;-89
2022/11/06 08:23:01;;;;;;;8.73;3.53;;;8.20;99.90;;;;;;4972086;28;20172;-89
2022/11/06 08:25:29;;;;;;;11.03;4.57;;;8.30;99.90;;;;;;4972239;28;20517;-88
2022/11/06 08:27:57;;;;;;;10.40;4.60;;;8.20;99.90;;;;;;4972133;28;20216;-90
2022/11/06 08:30:24;;;;;;;9.73;4.57;;;8.30;99.90;;;;;;4971428;28;20205;-89
2022/11/06 08:32:50;;;;;;;10.60;4.67;;;8.30;99.90;;;;;;4972333;28;20211;-89
2022/11/06 08:35:19;;;;;;;10.90;4.90;;;8.40;99.90;;;;;;4975247;28;20314;-89
2022/11/06 08:37:45;;;;;;;13.83;5.43;;;8.60;99.90;;;;;;4992989;28;20200;-88
2022/11/06 08:40:11;;;;;;;13.43;5.90;;;8.70;99.90;;;;;;4995210;28;20186;-88
2022/11/06 08:42:38;;;;;;;17.73;5.63;;;8.80;99.90;;;;;;4994721;28;20229;-88
2022/11/06 08:45:04;;;;;;;15.83;6.63;;;8.90;99.90;;;;;;4994869;28;20172;-87
2022/11/06 08:47:30;;;;;;;19.20;6.80;;;9.00;99.90;;;;;;4994888;28;20688;-89
2022/11/06 08:49:56;;;;;;;23.00;7.73;;;9.10;99.90;;;;;;4994764;28;20176;-88
2022/11/06 08:52:22;;;;;;;17.47;6.80;;;9.20;99.90;;;;;;4994879;28;20179;-88
2022/11/06 08:54:48;;;;;;;13.50;5.43;;;9.30;99.90;;;;;;4994552;28;20179;-87
2022/11/06 08:57:14;;;;;;;14.10;5.75;;;9.40;99.90;;;;;;4994317;28;20204;-86
2022/11/06 08:59:39;;;;;;;12.43;5.20;;;9.50;99.90;;;;;;4994276;28;20180;-87
2022/11/06 09:02:09;;;;;;;11.75;4.75;;;9.50;99.90;;;;;;4994470;28;20733;-87
2022/11/06 09:04:36;;;;;;;14.18;4.68;;;9.50;99.90;;;;;;4995628;28;20171;-86
2022/11/06 09:07:02;;;;;;;18.17;5.77;;;9.40;99.90;;;;;;4976877;28;20263;-86
2022/11/06 09:09:40;;;;;;;12.35;5.32;;;9.50;99.90;;;;;;4976166;28;20165;-87
2022/11/06 09:12:06;;;;;;;13.30;4.97;;;9.50;99.90;;;;;;4975043;28;20191;-87
2022/11/06 09:14:34;;;;;;;12.63;5.55;;;9.60;99.90;;;;;;4974792;28;20223;-87
2022/11/06 09:17:00;;;;;;;16.17;5.70;;;9.70;99.90;;;;;;4975053;28;20258;-88
2022/11/06 09:19:26;;;;;;;9.52;4.35;;;9.70;99.90;;;;;;4974948;28;20199;-88
2022/11/06 09:21:52;;;;;;;11.57;4.60;;;9.80;99.90;;;;;;4974814;28;20286;-87
2022/11/06 09:24:18;;;;;;;9.95;4.72;;;9.90;99.90;;;;;;4975386;28;20243;-87
2022/11/06 09:26:44;;;;;;;9.35;4.60;;;10.00;99.90;;;;;;4974738;28;20200;-87
2022/11/06 09:29:10;;;;;;;13.15;5.00;;;10.00;99.90;;;;;;4974831;28;20610;-87
2022/11/06 09:31:36;;;;;;;8.48;4.20;;;10.10;99.90;;;;;;4958742;28;20716;-87
2022/11/06 09:34:03;;;;;;;11.88;4.63;;;10.10;99.90;;;;;;4974685;28;20232;-87
2022/11/06 09:36:28;;;;;;;9.10;4.30;;;10.20;99.90;;;;;;4987159;28;20251;-86
2022/11/06 09:38:54;;;;;;;9.48;4.22;;;10.30;99.90;;;;;;4994070;28;20199;-88
2022/11/06 09:41:40;;;;;;;7.47;3.72;;;10.30;99.90;;;;;;4993773;28;20217;-88
2022/11/06 09:44:25;;;;;;;10.10;4.07;;;10.40;99.90;;;;;;4993921;28;20183;-87
2022/11/06 09:46:55;;;;;;;9.88;3.85;;;10.60;99.90;;;;;;4994926;28;20282;-88
2022/11/06 09:49:29;;;;;;;8.25;3.35;;;10.80;99.90;;;;;;4993037;28;20176;-87
2022/11/06 09:52:29;;;;;;;9.18;3.75;;;10.90;99.90;;;;;;4993363;28;20179;-86
2022/11/06 09:55:09;;;;;;;9.70;3.70;;;11.10;99.90;;;;;;4993320;28;20672;-87
2022/11/06 09:57:58;;;;;;;6.03;3.22;;;11.20;99.90;;;;;;4993163;28;20218;-86
2022/11/06 10:00:25;;;;;;;14.30;3.15;;;11.40;99.90;;;;;;4993689;28;20180;-87
2022/11/06 10:02:54;;;;;;;12.77;3.50;;;11.40;99.90;;;;;;4994514;28;20173;-87
2022/11/06 10:05:27;;;;;;;7.15;3.03;;;11.30;99.90;;;;;;4989309;28;20220;-89
2022/11/06 10:08:00;;;;;;;7.07;3.15;;;11.30;99.90;;;;;;4973785;28;20200;-87
2022/11/06 10:11:07;;;;;;;6.90;3.00;;;11.30;99.90;;;;;;4973725;28;20197;-87
2022/11/06 10:13:42;;;;;;;8.20;3.28;;;11.30;99.90;;;;;;4944289;28;20184;-86
2022/11/06 10:16:42;;;;;;;7.88;3.22;;;11.30;99.90;;;;;;4974731;28;20282;-86
2022/11/06 10:19:23;;;;;;;10.57;2.85;;;11.10;99.90;;;;;;4908433;28;20200;-86
2022/11/06 10:22:10;;;;;;;9.75;2.58;;;11.00;99.90;;;;;;4972951;28;20200;-86
2022/11/06 10:24:46;;;;;;;9.98;2.75;;;11.10;99.90;;;;;;4974239;28;20260;-87
2022/11/06 10:27:39;;;;;;;6.32;2.20;;;11.10;99.90;;;;;;4973066;28;20204;-87
2022/11/06 10:30:12;;;;;;;6.63;2.17;;;11.00;99.90;;;;;;4973190;28;20323;-87
2022/11/06 10:33:11;;;;;;;7.55;2.33;;;10.90;99.90;;;;;;4971373;28;20196;-87
2022/11/06 10:35:47;;;;;;;7.45;1.90;;;10.70;99.90;;;;;;4954026;28;20236;-86
2022/11/06 10:38:17;;;;;;;4.72;1.70;;;10.70;99.90;;;;;;4953651;28;20204;-87
2022/11/06 10:40:45;;;;;;;7.13;1.88;;;10.90;99.90;;;;;;4953583;28;20200;-87
2022/11/06 10:43:30;;;;;;;5.63;1.90;;;11.00;99.90;;;;;;4953603;28;20634;-87
2022/11/06 10:46:15;;;;;;;6.03;1.60;;;11.30;99.90;;;;;;4953466;28;20237;-87
2022/11/06 10:48:49;;;;;;;2.58;1.30;;;11.50;99.90;;;;;;4954078;28;20166;-87
2022/11/06 10:51:31;;;;;;;5.25;1.60;;;11.50;99.90;;;;;;4969658;28;20193;-88
2022/11/06 10:54:06;;;;;;;5.20;1.50;;;11.40;99.90;;;;;;4954705;28;20162;-88
2022/11/06 10:56:46;;;;;;;7.50;1.70;;;11.20;99.90;;;;;;4953399;28;20208;-87
2022/11/06 10:59:13;;;;;;;5.95;1.88;;;11.30;99.90;;;;;;4953452;29;20180;-87
2022/11/06 11:01:39;;;;;;;3.42;1.30;;;11.40;99.90;;;;;;4952520;28;20204;-86
2022/11/06 11:04:04;;;;;;;4.25;1.50;;;11.50;99.90;;;;;;4953329;28;20256;-87
2022/11/06 11:06:30;;;;;;;3.72;1.40;;;11.70;99.90;;;;;;4966321;28;20205;-87
2022/11/06 11:08:56;;;;;;;2.60;1.38;;;11.80;99.90;;;;;;4972430;28;20621;-87
2022/11/06 11:11:25;;;;;;;4.55;1.65;;;11.80;99.90;;;;;;4972128;28;20191;-87
2022/11/06 11:14:12;;;;;;;3.55;1.52;;;12.00;99.90;;;;;;4972205;28;20189;-87
2022/11/06 11:16:40;;;;;;;4.40;1.60;;;12.10;99.90;;;;;;4973285;28;20201;-87
2022/11/06 11:19:26;;;;;;;5.70;1.67;;;12.10;99.90;;;;;;4971959;28;20239;-87
2022/11/06 11:22:01;;;;;;;3.63;1.60;;;12.10;99.90;;;;;;4973291;28;20193;-89
2022/11/06 11:24:28;;;;;;;1.55;1.13;;;12.20;99.90;;;;;;4972030;28;20182;-87
2022/11/06 11:27:02;;;;;;;2.88;1.40;;;12.30;99.90;;;;;;4972051;28;20197;-87
2022/11/06 11:29:41;;;;;;;5.93;1.33;;;12.30;99.90;;;;;;4972073;28;20186;-87
2022/11/06 11:32:07;;;;;;;3.80;1.30;;;12.40;99.90;;;;;;4971879;28;20190;-87
2022/11/06 11:34:47;;;;;;;3.75;1.40;;;12.50;99.90;;;;;;4971492;28;20180;-88
2022/11/06 11:37:32;;;;;;;6.07;1.40;;;12.70;99.90;;;;;;4953971;28;20209;-88
2022/11/06 11:40:19;;;;;;;3.08;0.90;;;12.80;99.90;;;;;;4953953;28;20161;-88
2022/11/06 11:42:45;;;;;;;2.58;1.10;;;12.80;99.90;;;;;;4953024;29;20187;-88
2022/11/06 11:45:20;;;;;;;1.95;1.20;;;12.80;99.90;;;;;;4953519;29;20165;-87
2022/11/06 11:47:48;;;;;;;2.45;1.00;;;12.90;99.90;;;;;;4952827;28;20204;-86
2022/11/06 11:50:33;;;;;;;1.15;0.90;;;12.80;99.90;;;;;;4952380;29;20256;-87
2022/11/06 11:53:05;;;;;;;3.42;1.25;;;12.90;99.90;;;;;;4953641;28;20158;-88
2022/11/06 11:55:41;;;;;;;5.75;1.25;;;13.00;99.90;;;;;;4952090;29;20645;-88
2022/11/06 11:58:26;;;;;;;2.35;1.08;;;13.00;99.90;;;;;;4969597;28;20220;-88
2022/11/06 12:00:59;;;;;;;6.07;1.10;;;13.10;99.90;;;;;;4971647;28;20212;-87
2022/11/06 12:03:30;;;;;;;3.30;1.27;;;13.10;99.90;;;;;;4971860;28;20184;-87
2022/11/06 12:06:08;;;;;;;3.17;1.10;;;13.10;99.90;;;;;;4980547;28;20194;-87
2022/11/06 12:08:36;;;;;;;1.60;0.98;;;13.10;99.90;;;;;;4990772;28;20250;-87
2022/11/06 12:11:04;;;;;;;2.22;0.90;;;13.10;99.90;;;;;;4992230;28;20168;-88
2022/11/06 12:13:30;;;;;;;3.03;1.10;;;13.20;99.90;;;;;;4993699;28;20179;-88
2022/11/06 12:16:11;;;;;;;6.80;1.25;;;13.20;99.90;;;;;;4996160;28;20168;-87
2022/11/06 12:18:41;;;;;;;1.75;1.00;;;13.30;99.90;;;;;;4994572;28;20577;-87
2022/11/06 12:21:07;;;;;;;2.97;1.00;;;13.30;99.90;;;;;;4994608;28;20206;-88
2022/11/06 12:23:41;;;;;;;2.22;1.00;;;13.30;99.90;;;;;;4994512;28;20169;-88
2022/11/06 12:26:18;;;;;;;5.32;1.10;;;13.30;99.90;;;;;;4994383;28;20168;-87
2022/11/06 12:28:48;;;;;;;4.38;1.10;;;13.30;99.90;;;;;;4994674;28;20161;-88
2022/11/06 12:31:21;;;;;;;3.33;0.98;;;13.40;99.90;;;;;;4994414;28;20172;-88
2022/11/06 12:33:50;;;;;;;5.03;1.17;;;13.50;99.90;;;;;;4994555;28;20623;-87
2022/11/06 12:36:19;;;;;;;2.88;1.10;;;13.50;99.90;;;;;;4982779;28;20243;-89
2022/11/06 12:38:53;;;;;;;4.18;1.00;;;13.40;99.90;;;;;;4975895;28;20168;-88
2022/11/06 12:41:29;;;;;;;3.47;1.20;;;13.40;99.90;;;;;;4974639;28;20216;-87
2022/11/06 12:43:56;;;;;;;4.25;1.50;;;13.40;99.90;;;;;;4974661;28;20168;-87
2022/11/06 12:46:27;;;;;;;4.53;1.10;;;13.50;99.90;;;;;;4974432;28;20172;-88
2022/11/06 12:49:12;;;;;;;4.00;1.02;;;13.60;99.90;;;;;;4974624;28;20231;-89
2022/11/06 12:52:12;;;;;;;3.50;1.00;;;13.60;99.90;;;;;;4974768;28;20215;-87
2022/11/06 12:54:56;;;;;;;1.38;0.98;;;13.80;99.90;;;;;;4974696;28;20177;-88
2022/11/06 12:57:47;;;;;;;2.60;0.90;;;13.80;99.90;;;;;;4974359;28;20223;-87
2022/11/06 13:00:31;;;;;;;6.57;1.00;;;13.80;99.90;;;;;;4974381;28;20177;-87
2022/11/06 13:03:16;;;;;;;5.30;1.08;;;13.80;99.90;;;;;;4974765;28;20176;-87
2022/11/06 13:05:55;;;;;;;3.88;1.25;;;13.90;99.90;;;;;;4974257;28;20267;-88
2022/11/06 13:08:29;;;;;;;3.65;1.05;;;13.90;99.90;;;;;;4973908;28;20215;-88
2022/11/06 13:11:18;;;;;;;2.40;1.05;;;13.90;99.90;;;;;;4974319;28;20172;-88
2022/11/06 13:14:21;;;;;;;4.68;1.30;;;14.00;99.90;;;;;;4974085;28;20521;-89
2022/11/06 13:17:02;;;;;;;3.65;0.90;;;14.00;99.90;;;;;;4974338;28;20199;-88
2022/11/06 13:20:15;;;;;;;3.25;1.05;;;13.80;99.90;;;;;;4974115;28;20204;-88
2022/11/06 13:23:13;;;;;;;3.50;1.02;;;13.50;99.90;;;;;;4989669;28;20275;-88
2022/11/06 13:26:02;;;;;;;4.90;1.20;;;13.40;99.90;;;;;;4974833;28;20263;-88
2022/11/06 13:28:40;;;;;;;3.92;0.80;;;13.40;99.90;;;;;;4974421;28;20387;-88
2022/11/06 13:31:09;;;;;;;2.40;0.90;;;13.60;99.90;;;;;;4973689;28;20180;-89
2022/11/06 13:33:45;;;;;;;2.72;0.90;;;13.80;99.90;;;;;;4973689;28;20271;-87